Accueil
METAR-TAF:

METAR-TAF

Aéroports :

Quillayute Airport

Forks, Washington, États-Unis

latitude: 47-56-15N, longitude: 124-33-18W, altitude: 59 m

Observation

Le bulletin a été fait il y a 1 heure et 8 minutes, à 08:53 UTC
Vent 9 kt de sud avec des rafales jusqu'à 19 kt, variant entre sud/sud-est et sud-ouest
Température 14°C
Humidité 100%
Pression 1008 hPa
Visibilité: 6.4 km
Nuages fragmentés à une hauteur de 700 ft
Ciel couvert à une hauteur de 1000 ft
pluie faible, brume

METAR: KUIL 220853Z AUTO 19009G19KT 150V220 4SM -RA BR BKN007 OVC010 14/14 A2977 RMK AO2 RAE0754B30 CIG 004V008 SLP081 P0001 60003 T01440139 58002 $

Heure: 03:01 (10:01 UTC)


TAF: absent

Observations et prévisions météorologiques de plus de 4000 aéroports (messages METAR et TAF).

Les stations disponibles sont représentées par des disques jaunes et rouges sur la carte.

Passer la souris dessus pour voir le nom de la station.

Cliquer dessus pour voir les observations et prévisions météorologiques.

Pour changer de carte: cliquez sur les boutons verts avec une croix noire pour zoomer, sur le bouton vert avec un tiret pour effectuer un zoom arrière, ou sur les flèches vertes pour les cartes adjacentes.


METAR-TAF: